Etusivu
METAR-TAF:

METAR-TAF

Lentoasemat :

Dallas / Fort Worth, Texas, Yhdysvallat

Dallasin kansainvälinen lentoasema

Leveyspiiri: 32-53-49N, Pituuspiiri: 097-01-19W, korkeus merenpinnasta: 183 m

Tämänhetkinen sää

Tämä raportti tehtiin 42 minuuttia sitten, kello 10.53 UTC
Tuuli 4 kn lounaasta
Lämpötila 4°C
Kosteus 56%
Ilmanpaine 1024 hPa
Näkyvyys: 16.1 km
selkeää

METAR: KDFW 111053Z 22004KT 10SM CLR 04/M04 A3023 RMK AO2 SLP235 T00441039

Aika: 05:35 (11:35 UTC)

Sääennuste

Tämä raportti tehtiin 2 tuntia ja 28 minuuttia sitten, kello 09.07 UTC
Ennuste voimassa 11. päivästä klo 09 UTC - 12. päivään klo 12 UTC
Tuuli 8 kn lännestä/lounaasta
Näkyvyys: 10 km
Muutamia pilviä 30000 ft:n korkeudessa
From 12. päivästä klo 0200 UTC
Tuuli 11 kn pohjoisen/luoteesta
Näkyvyys: 10 km
Hajanaisia pilviä 30000 ft:n korkeudessa

TAF: KDFW 110907Z 1109/1212 25008KT P6SM FEW300 FM120200 33011KT P6SM SCT300

Säähavainnot ja -ennusteet yli 4000 lentoasemalta (METAR- ja TAF-raportit).

Käytössä olevat sääasemat on merkitty karttaan keltaisilla ja punaisilla pisteillä.

Aseta hiiri pisteen päälle nähdäksesi sääaseman nimen.

Klikkaa sitten nähdäksesi säähavainnot ja -ennusteet.

Kartan vaihtaminen: klikkaa mustalla rastilla varustettuja vihreitä pisteitä, niin voit zoomata sisään; viivalla varustettua vihreää pistettä, niin voit zoomata ulos tai vihreitä nuolia, niin pääset viereisille kartoille.


METAR-TAF: